sensor_id;sensor_type;location;lat;lon;timestamp;P1;durP1;ratioP1;P2;durP2;ratioP2
61038;SDS011;46919;45.816;3.104;2023-10-09T00:01:42;5.80;;;2.58;;
61038;SDS011;46919;45.816;3.104;2023-10-09T00:04:11;10.45;;;2.72;;
61038;SDS011;46919;45.816;3.104;2023-10-09T00:06:39;11.63;;;3.03;;
61038;SDS011;46919;45.816;3.104;2023-10-09T00:09:07;10.70;;;3.00;;
61038;SDS011;46919;45.816;3.104;2023-10-09T00:11:53;6.82;;;2.88;;
61038;SDS011;46919;45.816;3.104;2023-10-09T00:14:25;9.18;;;2.88;;
61038;SDS011;46919;45.816;3.104;2023-10-09T00:16:52;10.30;;;3.03;;
61038;SDS011;46919;45.816;3.104;2023-10-09T00:19:26;7.50;;;2.83;;
61038;SDS011;46919;45.816;3.104;2023-10-09T00:21:58;9.50;;;2.70;;
61038;SDS011;46919;45.816;3.104;2023-10-09T00:24:32;8.23;;;2.90;;
61038;SDS011;46919;45.816;3.104;2023-10-09T00:26:58;9.00;;;2.95;;
61038;SDS011;46919;45.816;3.104;2023-10-09T00:29:47;11.70;;;2.90;;
61038;SDS011;46919;45.816;3.104;2023-10-09T00:32:16;9.43;;;2.92;;
61038;SDS011;46919;45.816;3.104;2023-10-09T00:34:43;14.10;;;3.20;;
61038;SDS011;46919;45.816;3.104;2023-10-09T00:37:09;14.43;;;3.50;;
61038;SDS011;46919;45.816;3.104;2023-10-09T00:39:41;7.22;;;2.80;;
61038;SDS011;46919;45.816;3.104;2023-10-09T00:42:12;9.57;;;2.85;;
61038;SDS011;46919;45.816;3.104;2023-10-09T00:44:47;9.57;;;2.60;;
61038;SDS011;46919;45.816;3.104;2023-10-09T00:47:13;7.82;;;2.50;;
61038;SDS011;46919;45.816;3.104;2023-10-09T00:49:57;8.52;;;2.97;;
61038;SDS011;46919;45.816;3.104;2023-10-09T00:52:33;6.40;;;3.00;;
61038;SDS011;46919;45.816;3.104;2023-10-09T00:55:19;11.07;;;3.00;;
61038;SDS011;46919;45.816;3.104;2023-10-09T00:58:12;7.90;;;2.58;;
61038;SDS011;46919;45.816;3.104;2023-10-09T01:00:42;9.32;;;2.78;;
61038;SDS011;46919;45.816;3.104;2023-10-09T01:03:17;10.10;;;2.87;;
61038;SDS011;46919;45.816;3.104;2023-10-09T01:05:54;7.35;;;2.60;;
61038;SDS011;46919;45.816;3.104;2023-10-09T01:08:22;10.50;;;3.03;;
61038;SDS011;46919;45.816;3.104;2023-10-09T01:10:56;7.47;;;3.13;;
61038;SDS011;46919;45.816;3.104;2023-10-09T01:13:24;8.05;;;2.85;;
61038;SDS011;46919;45.816;3.104;2023-10-09T01:15:53;7.72;;;2.70;;
61038;SDS011;46919;45.816;3.104;2023-10-09T01:18:19;8.77;;;2.60;;
61038;SDS011;46919;45.816;3.104;2023-10-09T01:20:45;7.57;;;2.97;;
61038;SDS011;46919;45.816;3.104;2023-10-09T01:23:11;8.82;;;2.97;;
61038;SDS011;46919;45.816;3.104;2023-10-09T01:25:37;7.43;;;2.40;;
61038;SDS011;46919;45.816;3.104;2023-10-09T01:28:10;11.90;;;2.70;;
61038;SDS011;46919;45.816;3.104;2023-10-09T01:30:40;7.63;;;2.90;;
61038;SDS011;46919;45.816;3.104;2023-10-09T01:33:07;9.18;;;2.83;;
61038;SDS011;46919;45.816;3.104;2023-10-09T01:35:47;6.47;;;2.50;;
61038;SDS011;46919;45.816;3.104;2023-10-09T01:38:14;6.72;;;2.55;;
61038;SDS011;46919;45.816;3.104;2023-10-09T01:40:40;6.97;;;2.40;;
61038;SDS011;46919;45.816;3.104;2023-10-09T01:43:06;7.13;;;2.60;;
61038;SDS011;46919;45.816;3.104;2023-10-09T01:45:35;11.32;;;3.00;;
61038;SDS011;46919;45.816;3.104;2023-10-09T01:48:11;10.15;;;2.90;;
61038;SDS011;46919;45.816;3.104;2023-10-09T01:50:37;7.63;;;2.60;;
61038;SDS011;46919;45.816;3.104;2023-10-09T01:53:06;7.10;;;2.60;;
61038;SDS011;46919;45.816;3.104;2023-10-09T01:55:33;8.80;;;3.00;;
61038;SDS011;46919;45.816;3.104;2023-10-09T01:58:05;7.30;;;2.50;;
61038;SDS011;46919;45.816;3.104;2023-10-09T02:00:49;7.07;;;2.50;;
61038;SDS011;46919;45.816;3.104;2023-10-09T02:03:22;8.00;;;2.97;;
61038;SDS011;46919;45.816;3.104;2023-10-09T02:05:52;9.27;;;2.60;;
61038;SDS011;46919;45.816;3.104;2023-10-09T02:08:29;10.60;;;2.75;;
61038;SDS011;46919;45.816;3.104;2023-10-09T02:10:55;6.80;;;2.70;;
61038;SDS011;46919;45.816;3.104;2023-10-09T02:13:21;8.35;;;2.70;;
61038;SDS011;46919;45.816;3.104;2023-10-09T02:15:55;9.77;;;2.58;;
61038;SDS011;46919;45.816;3.104;2023-10-09T02:18:37;6.10;;;2.67;;
61038;SDS011;46919;45.816;3.104;2023-10-09T02:21:17;8.18;;;2.50;;
61038;SDS011;46919;45.816;3.104;2023-10-09T02:23:53;6.75;;;2.50;;
61038;SDS011;46919;45.816;3.104;2023-10-09T02:26:22;9.02;;;2.80;;
61038;SDS011;46919;45.816;3.104;2023-10-09T02:28:54;8.82;;;2.45;;
61038;SDS011;46919;45.816;3.104;2023-10-09T02:31:24;8.70;;;2.72;;
61038;SDS011;46919;45.816;3.104;2023-10-09T02:33:51;9.48;;;3.03;;
61038;SDS011;46919;45.816;3.104;2023-10-09T02:36:23;10.00;;;2.50;;
61038;SDS011;46919;45.816;3.104;2023-10-09T02:38:49;7.72;;;2.63;;
61038;SDS011;46919;45.816;3.104;2023-10-09T02:41:18;7.78;;;2.60;;
61038;SDS011;46919;45.816;3.104;2023-10-09T02:43:45;7.70;;;2.47;;
61038;SDS011;46919;45.816;3.104;2023-10-09T02:46:12;10.75;;;3.08;;
61038;SDS011;46919;45.816;3.104;2023-10-09T02:48:49;10.00;;;2.65;;
61038;SDS011;46919;45.816;3.104;2023-10-09T02:51:18;5.97;;;2.22;;
61038;SDS011;46919;45.816;3.104;2023-10-09T02:53:54;7.72;;;2.58;;
61038;SDS011;46919;45.816;3.104;2023-10-09T02:56:22;10.82;;;2.55;;
61038;SDS011;46919;45.816;3.104;2023-10-09T02:59:01;9.52;;;2.30;;
61038;SDS011;46919;45.816;3.104;2023-10-09T03:01:30;11.88;;;2.78;;
61038;SDS011;46919;45.816;3.104;2023-10-09T03:03:56;8.18;;;2.63;;
61038;SDS011;46919;45.816;3.104;2023-10-09T03:06:26;7.93;;;2.53;;
61038;SDS011;46919;45.816;3.104;2023-10-09T03:08:55;7.97;;;2.55;;
61038;SDS011;46919;45.816;3.104;2023-10-09T03:11:24;5.07;;;2.28;;
61038;SDS011;46919;45.816;3.104;2023-10-09T03:13:51;6.80;;;2.10;;
61038;SDS011;46919;45.816;3.104;2023-10-09T03:16:18;9.05;;;2.08;;
61038;SDS011;46919;45.816;3.104;2023-10-09T03:18:51;10.45;;;2.65;;
61038;SDS011;46919;45.816;3.104;2023-10-09T03:21:18;8.70;;;2.60;;
61038;SDS011;46919;45.816;3.104;2023-10-09T03:23:45;7.85;;;2.67;;
61038;SDS011;46919;45.816;3.104;2023-10-09T03:26:16;10.98;;;2.58;;
61038;SDS011;46919;45.816;3.104;2023-10-09T03:28:43;7.97;;;2.22;;
61038;SDS011;46919;45.816;3.104;2023-10-09T03:31:10;8.98;;;2.90;;
61038;SDS011;46919;45.816;3.104;2023-10-09T03:33:36;7.55;;;2.40;;
61038;SDS011;46919;45.816;3.104;2023-10-09T03:36:01;7.55;;;2.28;;
61038;SDS011;46919;45.816;3.104;2023-10-09T03:38:32;6.75;;;2.20;;
61038;SDS011;46919;45.816;3.104;2023-10-09T03:41:03;6.43;;;2.40;;
61038;SDS011;46919;45.816;3.104;2023-10-09T03:43:35;9.65;;;2.38;;
61038;SDS011;46919;45.816;3.104;2023-10-09T03:46:07;8.65;;;2.67;;
61038;SDS011;46919;45.816;3.104;2023-10-09T03:48:53;5.95;;;2.65;;
61038;SDS011;46919;45.816;3.104;2023-10-09T03:51:22;7.40;;;2.25;;
61038;SDS011;46919;45.816;3.104;2023-10-09T03:53:48;11.98;;;2.92;;
61038;SDS011;46919;45.816;3.104;2023-10-09T03:56:14;7.05;;;2.33;;
61038;SDS011;46919;45.816;3.104;2023-10-09T03:58:44;6.20;;;2.53;;
61038;SDS011;46919;45.816;3.104;2023-10-09T04:01:12;6.43;;;2.50;;
61038;SDS011;46919;45.816;3.104;2023-10-09T04:03:52;7.88;;;2.50;;
61038;SDS011;46919;45.816;3.104;2023-10-09T04:06:20;10.15;;;3.03;;
61038;SDS011;46919;45.816;3.104;2023-10-09T04:08:47;8.15;;;2.33;;
61038;SDS011;46919;45.816;3.104;2023-10-09T04:11:14;11.60;;;2.63;;
61038;SDS011;46919;45.816;3.104;2023-10-09T04:13:45;6.82;;;2.35;;
61038;SDS011;46919;45.816;3.104;2023-10-09T04:16:11;8.45;;;2.50;;
61038;SDS011;46919;45.816;3.104;2023-10-09T04:18:52;7.18;;;2.38;;
61038;SDS011;46919;45.816;3.104;2023-10-09T04:21:17;9.65;;;2.30;;
61038;SDS011;46919;45.816;3.104;2023-10-09T04:23:59;6.85;;;2.65;;
61038;SDS011;46919;45.816;3.104;2023-10-09T04:26:45;10.65;;;2.95;;
61038;SDS011;46919;45.816;3.104;2023-10-09T04:29:14;9.60;;;2.88;;
61038;SDS011;46919;45.816;3.104;2023-10-09T04:31:51;7.20;;;2.42;;
61038;SDS011;46919;45.816;3.104;2023-10-09T04:34:18;10.20;;;2.70;;
61038;SDS011;46919;45.816;3.104;2023-10-09T04:36:47;7.97;;;3.40;;
61038;SDS011;46919;45.816;3.104;2023-10-09T04:39:45;9.00;;;2.85;;
61038;SDS011;46919;45.816;3.104;2023-10-09T04:42:15;7.88;;;3.03;;
61038;SDS011;46919;45.816;3.104;2023-10-09T04:44:49;9.88;;;3.78;;
61038;SDS011;46919;45.816;3.104;2023-10-09T04:47:30;9.48;;;3.05;;
61038;SDS011;46919;45.816;3.104;2023-10-09T04:50:04;7.95;;;3.30;;
61038;SDS011;46919;45.816;3.104;2023-10-09T04:52:58;8.05;;;2.72;;
61038;SDS011;46919;45.816;3.104;2023-10-09T04:55:47;13.68;;;2.90;;
61038;SDS011;46919;45.816;3.104;2023-10-09T04:58:23;6.57;;;2.45;;
61038;SDS011;46919;45.816;3.104;2023-10-09T05:00:50;9.10;;;3.40;;
61038;SDS011;46919;45.816;3.104;2023-10-09T05:03:22;10.50;;;2.67;;
61038;SDS011;46919;45.816;3.104;2023-10-09T05:05:53;8.70;;;2.97;;
61038;SDS011;46919;45.816;3.104;2023-10-09T05:08:27;9.02;;;2.55;;
61038;SDS011;46919;45.816;3.104;2023-10-09T05:10:53;9.13;;;2.42;;
61038;SDS011;46919;45.816;3.104;2023-10-09T05:13:41;9.45;;;2.58;;
61038;SDS011;46919;45.816;3.104;2023-10-09T05:18:59;9.30;;;3.00;;
61038;SDS011;46919;45.816;3.104;2023-10-09T05:23:55;8.13;;;2.72;;
61038;SDS011;46919;45.816;3.104;2023-10-09T05:29:15;10.30;;;3.03;;
61038;SDS011;46919;45.816;3.104;2023-10-09T05:31:45;8.57;;;2.80;;
61038;SDS011;46919;45.816;3.104;2023-10-09T05:34:30;8.75;;;2.75;;
61038;SDS011;46919;45.816;3.104;2023-10-09T05:37:21;7.10;;;3.00;;
61038;SDS011;46919;45.816;3.104;2023-10-09T05:39:58;11.70;;;2.95;;
61038;SDS011;46919;45.816;3.104;2023-10-09T05:45:11;7.65;;;2.85;;
61038;SDS011;46919;45.816;3.104;2023-10-09T05:47:43;9.90;;;3.13;;
61038;SDS011;46919;45.816;3.104;2023-10-09T05:50:22;10.23;;;2.67;;
61038;SDS011;46919;45.816;3.104;2023-10-09T05:52:52;9.43;;;3.05;;
61038;SDS011;46919;45.816;3.104;2023-10-09T05:57:49;8.82;;;3.10;;
61038;SDS011;46919;45.816;3.104;2023-10-09T06:00:33;13.32;;;3.15;;
61038;SDS011;46919;45.816;3.104;2023-10-09T06:03:17;7.43;;;2.50;;
61038;SDS011;46919;45.816;3.104;2023-10-09T06:05:54;5.97;;;2.40;;
61038;SDS011;46919;45.816;3.104;2023-10-09T06:08:26;7.13;;;2.60;;
61038;SDS011;46919;45.816;3.104;2023-10-09T06:11:08;10.30;;;3.10;;
61038;SDS011;46919;45.816;3.104;2023-10-09T06:13:56;10.63;;;2.92;;
61038;SDS011;46919;45.816;3.104;2023-10-09T06:16:29;11.82;;;2.85;;
61038;SDS011;46919;45.816;3.104;2023-10-09T06:19:12;7.10;;;2.60;;
61038;SDS011;46919;45.816;3.104;2023-10-09T06:21:59;17.40;;;3.13;;
61038;SDS011;46919;45.816;3.104;2023-10-09T06:24:36;9.52;;;2.92;;
61038;SDS011;46919;45.816;3.104;2023-10-09T06:27:10;11.77;;;3.47;;
61038;SDS011;46919;45.816;3.104;2023-10-09T06:29:37;10.02;;;2.70;;
61038;SDS011;46919;45.816;3.104;2023-10-09T06:32:15;15.90;;;3.25;;
61038;SDS011;46919;45.816;3.104;2023-10-09T06:34:45;15.25;;;2.83;;
61038;SDS011;46919;45.816;3.104;2023-10-09T06:37:12;9.98;;;3.03;;
61038;SDS011;46919;45.816;3.104;2023-10-09T06:39:50;17.45;;;3.88;;
61038;SDS011;46919;45.816;3.104;2023-10-09T06:42:34;15.68;;;4.22;;
61038;SDS011;46919;45.816;3.104;2023-10-09T06:45:06;12.55;;;5.00;;
61038;SDS011;46919;45.816;3.104;2023-10-09T06:47:40;10.93;;;4.25;;
61038;SDS011;46919;45.816;3.104;2023-10-09T06:50:09;17.52;;;4.15;;
61038;SDS011;46919;45.816;3.104;2023-10-09T06:52:44;13.10;;;4.00;;
61038;SDS011;46919;45.816;3.104;2023-10-09T06:55:36;10.73;;;3.28;;
61038;SDS011;46919;45.816;3.104;2023-10-09T06:58:15;9.77;;;3.33;;
61038;SDS011;46919;45.816;3.104;2023-10-09T07:03:31;8.75;;;3.00;;
61038;SDS011;46919;45.816;3.104;2023-10-09T07:06:07;7.03;;;2.72;;
61038;SDS011;46919;45.816;3.104;2023-10-09T07:08:56;12.73;;;2.92;;
61038;SDS011;46919;45.816;3.104;2023-10-09T07:11:44;10.60;;;3.10;;
61038;SDS011;46919;45.816;3.104;2023-10-09T07:14:17;9.93;;;3.53;;
61038;SDS011;46919;45.816;3.104;2023-10-09T07:17:00;12.40;;;3.00;;
61038;SDS011;46919;45.816;3.104;2023-10-09T07:19:27;14.05;;;4.00;;
61038;SDS011;46919;45.816;3.104;2023-10-09T07:22:02;13.50;;;3.50;;
61038;SDS011;46919;45.816;3.104;2023-10-09T07:24:30;13.68;;;4.20;;
61038;SDS011;46919;45.816;3.104;2023-10-09T07:27:09;16.08;;;4.03;;
61038;SDS011;46919;45.816;3.104;2023-10-09T07:29:38;16.50;;;3.92;;
61038;SDS011;46919;45.816;3.104;2023-10-09T07:32:14;16.40;;;3.92;;
61038;SDS011;46919;45.816;3.104;2023-10-09T07:34:49;12.40;;;4.70;;
61038;SDS011;46919;45.816;3.104;2023-10-09T07:37:18;15.90;;;5.30;;
61038;SDS011;46919;45.816;3.104;2023-10-09T07:39:47;14.35;;;3.25;;
61038;SDS011;46919;45.816;3.104;2023-10-09T07:42:22;17.67;;;4.80;;
61038;SDS011;46919;45.816;3.104;2023-10-09T07:45:07;10.25;;;3.78;;
61038;SDS011;46919;45.816;3.104;2023-10-09T07:47:47;10.80;;;4.25;;
61038;SDS011;46919;45.816;3.104;2023-10-09T07:50:25;12.45;;;3.25;;
61038;SDS011;46919;45.816;3.104;2023-10-09T07:53:15;11.15;;;3.08;;
61038;SDS011;46919;45.816;3.104;2023-10-09T07:55:46;18.27;;;3.35;;
61038;SDS011;46919;45.816;3.104;2023-10-09T07:58:23;12.80;;;3.42;;
61038;SDS011;46919;45.816;3.104;2023-10-09T08:00:59;11.52;;;3.00;;
61038;SDS011;46919;45.816;3.104;2023-10-09T08:03:40;13.13;;;2.92;;
61038;SDS011;46919;45.816;3.104;2023-10-09T08:06:12;17.80;;;3.50;;
61038;SDS011;46919;45.816;3.104;2023-10-09T08:08:57;11.57;;;3.03;;
61038;SDS011;46919;45.816;3.104;2023-10-09T08:11:38;13.98;;;2.97;;
61038;SDS011;46919;45.816;3.104;2023-10-09T08:14:10;13.98;;;3.53;;
61038;SDS011;46919;45.816;3.104;2023-10-09T08:16:55;8.70;;;3.05;;
61038;SDS011;46919;45.816;3.104;2023-10-09T08:19:40;12.50;;;2.78;;
61038;SDS011;46919;45.816;3.104;2023-10-09T08:22:25;9.57;;;2.67;;
61038;SDS011;46919;45.816;3.104;2023-10-09T08:24:54;13.80;;;2.78;;
61038;SDS011;46919;45.816;3.104;2023-10-09T08:27:23;9.77;;;2.70;;
61038;SDS011;46919;45.816;3.104;2023-10-09T08:29:58;18.55;;;2.95;;
61038;SDS011;46919;45.816;3.104;2023-10-09T08:32:43;9.63;;;2.75;;
61038;SDS011;46919;45.816;3.104;2023-10-09T08:35:31;15.10;;;2.78;;
61038;SDS011;46919;45.816;3.104;2023-10-09T08:38:13;17.98;;;2.97;;
61038;SDS011;46919;45.816;3.104;2023-10-09T08:40:42;15.20;;;2.60;;
61038;SDS011;46919;45.816;3.104;2023-10-09T08:43:20;12.80;;;2.67;;
61038;SDS011;46919;45.816;3.104;2023-10-09T08:45:51;12.90;;;2.67;;
61038;SDS011;46919;45.816;3.104;2023-10-09T08:48:19;8.73;;;2.63;;
61038;SDS011;46919;45.816;3.104;2023-10-09T08:50:49;15.70;;;2.67;;
61038;SDS011;46919;45.816;3.104;2023-10-09T08:53:19;10.10;;;3.20;;
61038;SDS011;46919;45.816;3.104;2023-10-09T08:55:46;11.75;;;2.80;;
61038;SDS011;46919;45.816;3.104;2023-10-09T08:58:13;14.00;;;3.58;;
61038;SDS011;46919;45.816;3.104;2023-10-09T09:00:50;11.55;;;3.55;;
61038;SDS011;46919;45.816;3.104;2023-10-09T09:03:16;21.25;;;3.80;;
61038;SDS011;46919;45.816;3.104;2023-10-09T09:05:48;12.23;;;2.88;;
61038;SDS011;46919;45.816;3.104;2023-10-09T09:08:22;15.18;;;2.97;;
61038;SDS011;46919;45.816;3.104;2023-10-09T09:11:03;9.50;;;2.88;;
61038;SDS011;46919;45.816;3.104;2023-10-09T09:14:21;14.48;;;3.13;;
61038;SDS011;46919;45.816;3.104;2023-10-09T09:16:44;7.78;;;2.28;;
61038;SDS011;46919;45.816;3.104;2023-10-09T09:19:13;11.93;;;2.65;;
61038;SDS011;46919;45.816;3.104;2023-10-09T09:21:52;10.55;;;2.75;;
61038;SDS011;46919;45.816;3.104;2023-10-09T09:24:35;10.93;;;3.10;;
61038;SDS011;46919;45.816;3.104;2023-10-09T09:27:02;13.45;;;3.17;;
61038;SDS011;46919;45.816;3.104;2023-10-09T09:32:03;30.50;;;12.82;;
61038;SDS011;46919;45.816;3.104;2023-10-09T09:34:46;29.05;;;13.40;;
61038;SDS011;46919;45.816;3.104;2023-10-09T09:37:21;34.57;;;13.43;;
61038;SDS011;46919;45.816;3.104;2023-10-09T09:40:08;21.92;;;9.18;;
61038;SDS011;46919;45.816;3.104;2023-10-09T09:42:56;19.52;;;7.40;;
61038;SDS011;46919;45.816;3.104;2023-10-09T09:45:30;15.80;;;5.65;;
61038;SDS011;46919;45.816;3.104;2023-10-09T09:47:58;15.85;;;4.00;;
61038;SDS011;46919;45.816;3.104;2023-10-09T09:50:30;13.35;;;3.45;;
61038;SDS011;46919;45.816;3.104;2023-10-09T09:53:03;13.20;;;3.42;;
61038;SDS011;46919;45.816;3.104;2023-10-09T09:55:33;13.18;;;3.28;;
61038;SDS011;46919;45.816;3.104;2023-10-09T09:58:00;12.85;;;2.97;;
61038;SDS011;46919;45.816;3.104;2023-10-09T10:00:31;11.23;;;3.22;;
61038;SDS011;46919;45.816;3.104;2023-10-09T10:03:08;13.80;;;3.17;;
61038;SDS011;46919;45.816;3.104;2023-10-09T10:05:37;10.52;;;2.75;;
61038;SDS011;46919;45.816;3.104;2023-10-09T10:08:07;10.48;;;2.55;;
61038;SDS011;46919;45.816;3.104;2023-10-09T10:10:38;9.13;;;2.40;;
61038;SDS011;46919;45.816;3.104;2023-10-09T10:13:12;13.52;;;2.83;;
61038;SDS011;46919;45.816;3.104;2023-10-09T10:15:57;10.93;;;3.33;;
61038;SDS011;46919;45.816;3.104;2023-10-09T10:18:23;10.20;;;2.70;;
61038;SDS011;46919;45.816;3.104;2023-10-09T10:23:41;13.88;;;3.03;;
61038;SDS011;46919;45.816;3.104;2023-10-09T10:26:19;12.27;;;3.17;;
61038;SDS011;46919;45.816;3.104;2023-10-09T10:32:00;13.20;;;2.33;;
61038;SDS011;46919;45.816;3.104;2023-10-09T10:34:51;12.23;;;3.28;;
61038;SDS011;46919;45.816;3.104;2023-10-09T10:37:36;11.50;;;3.33;;
61038;SDS011;46919;45.816;3.104;2023-10-09T10:40:09;8.27;;;3.25;;
61038;SDS011;46919;45.816;3.104;2023-10-09T10:43:03;12.38;;;3.40;;
61038;SDS011;46919;45.816;3.104;2023-10-09T10:45:37;12.77;;;3.42;;
61038;SDS011;46919;45.816;3.104;2023-10-09T10:48:08;13.85;;;3.50;;
61038;SDS011;46919;45.816;3.104;2023-10-09T10:50:48;10.35;;;3.60;;
61038;SDS011;46919;45.816;3.104;2023-10-09T10:53:14;10.70;;;3.42;;
61038;SDS011;46919;45.816;3.104;2023-10-09T10:58:36;8.30;;;3.17;;
61038;SDS011;46919;45.816;3.104;2023-10-09T11:01:12;10.68;;;2.90;;
61038;SDS011;46919;45.816;3.104;2023-10-09T11:03:39;12.30;;;3.75;;
61038;SDS011;46919;45.816;3.104;2023-10-09T11:06:26;9.07;;;3.20;;
61038;SDS011;46919;45.816;3.104;2023-10-09T11:09:07;9.77;;;3.30;;
61038;SDS011;46919;45.816;3.104;2023-10-09T11:11:47;10.52;;;3.38;;
61038;SDS011;46919;45.816;3.104;2023-10-09T11:14:14;17.20;;;3.97;;
61038;SDS011;46919;45.816;3.104;2023-10-09T11:16:40;12.35;;;3.67;;
61038;SDS011;46919;45.816;3.104;2023-10-09T11:21:54;11.80;;;3.65;;
61038;SDS011;46919;45.816;3.104;2023-10-09T11:24:43;11.88;;;3.80;;
61038;SDS011;46919;45.816;3.104;2023-10-09T11:27:09;10.25;;;3.45;;
61038;SDS011;46919;45.816;3.104;2023-10-09T11:29:52;13.02;;;4.15;;
61038;SDS011;46919;45.816;3.104;2023-10-09T11:32:18;13.45;;;3.50;;
61038;SDS011;46919;45.816;3.104;2023-10-09T11:34:47;12.82;;;3.17;;
61038;SDS011;46919;45.816;3.104;2023-10-09T11:37:17;10.15;;;3.33;;
61038;SDS011;46919;45.816;3.104;2023-10-09T11:39:56;10.82;;;3.65;;
61038;SDS011;46919;45.816;3.104;2023-10-09T11:42:22;9.80;;;3.60;;
61038;SDS011;46919;45.816;3.104;2023-10-09T11:45:02;10.60;;;3.22;;
61038;SDS011;46919;45.816;3.104;2023-10-09T11:47:48;8.13;;;3.55;;
61038;SDS011;46919;45.816;3.104;2023-10-09T11:50:46;9.27;;;3.58;;
61038;SDS011;46919;45.816;3.104;2023-10-09T11:53:17;10.70;;;3.40;;
61038;SDS011;46919;45.816;3.104;2023-10-09T11:55:50;13.35;;;3.55;;
61038;SDS011;46919;45.816;3.104;2023-10-09T11:58:21;11.88;;;3.83;;
61038;SDS011;46919;45.816;3.104;2023-10-09T12:03:16;15.98;;;3.30;;
61038;SDS011;46919;45.816;3.104;2023-10-09T12:05:42;14.48;;;3.60;;
61038;SDS011;46919;45.816;3.104;2023-10-09T12:08:11;11.98;;;3.05;;
61038;SDS011;46919;45.816;3.104;2023-10-09T12:10:40;9.82;;;3.08;;
61038;SDS011;46919;45.816;3.104;2023-10-09T12:13:06;14.52;;;3.75;;
61038;SDS011;46919;45.816;3.104;2023-10-09T12:15:32;10.25;;;4.18;;
61038;SDS011;46919;45.816;3.104;2023-10-09T12:18:04;7.00;;;3.60;;
61038;SDS011;46919;45.816;3.104;2023-10-09T12:20:34;9.13;;;3.13;;
61038;SDS011;46919;45.816;3.104;2023-10-09T12:23:01;8.25;;;3.17;;
61038;SDS011;46919;45.816;3.104;2023-10-09T12:25:31;9.48;;;3.40;;
61038;SDS011;46919;45.816;3.104;2023-10-09T12:27:58;10.40;;;3.47;;
61038;SDS011;46919;45.816;3.104;2023-10-09T12:30:26;14.13;;;3.65;;
61038;SDS011;46919;45.816;3.104;2023-10-09T12:32:55;10.90;;;3.45;;
61038;SDS011;46919;45.816;3.104;2023-10-09T12:35:25;7.45;;;3.42;;
61038;SDS011;46919;45.816;3.104;2023-10-09T12:37:54;7.00;;;2.90;;
61038;SDS011;46919;45.816;3.104;2023-10-09T12:40:21;8.32;;;3.25;;
61038;SDS011;46919;45.816;3.104;2023-10-09T12:42:52;7.78;;;3.38;;
61038;SDS011;46919;45.816;3.104;2023-10-09T12:45:21;7.75;;;2.97;;
61038;SDS011;46919;45.816;3.104;2023-10-09T12:47:54;9.63;;;2.97;;
61038;SDS011;46919;45.816;3.104;2023-10-09T12:50:34;12.27;;;3.45;;
61038;SDS011;46919;45.816;3.104;2023-10-09T12:53:09;8.27;;;2.78;;
61038;SDS011;46919;45.816;3.104;2023-10-09T12:55:36;8.95;;;3.10;;
61038;SDS011;46919;45.816;3.104;2023-10-09T12:58:08;7.47;;;2.97;;
61038;SDS011;46919;45.816;3.104;2023-10-09T13:00:37;9.85;;;3.10;;
61038;SDS011;46919;45.816;3.104;2023-10-09T13:03:09;9.27;;;2.70;;
61038;SDS011;46919;45.816;3.104;2023-10-09T13:08:23;9.30;;;3.00;;
61038;SDS011;46919;45.816;3.104;2023-10-09T13:10:57;10.82;;;3.25;;
61038;SDS011;46919;45.816;3.104;2023-10-09T13:13:29;7.95;;;2.97;;
61038;SDS011;46919;45.816;3.104;2023-10-09T13:16:19;9.27;;;3.10;;
61038;SDS011;46919;45.816;3.104;2023-10-09T13:18:49;9.68;;;3.28;;
61038;SDS011;46919;45.816;3.104;2023-10-09T13:21:22;8.40;;;2.80;;
61038;SDS011;46919;45.816;3.104;2023-10-09T13:23:49;7.22;;;2.95;;
61038;SDS011;46919;45.816;3.104;2023-10-09T13:26:19;8.93;;;3.25;;
61038;SDS011;46919;45.816;3.104;2023-10-09T13:28:49;8.27;;;2.83;;
61038;SDS011;46919;45.816;3.104;2023-10-09T13:31:17;7.57;;;3.00;;
61038;SDS011;46919;45.816;3.104;2023-10-09T13:33:45;7.78;;;3.15;;
61038;SDS011;46919;45.816;3.104;2023-10-09T13:36:12;11.90;;;3.42;;
61038;SDS011;46919;45.816;3.104;2023-10-09T13:38:51;8.63;;;3.08;;
61038;SDS011;46919;45.816;3.104;2023-10-09T13:41:18;6.90;;;2.95;;
61038;SDS011;46919;45.816;3.104;2023-10-09T13:43:44;7.22;;;2.90;;
61038;SDS011;46919;45.816;3.104;2023-10-09T13:46:10;7.25;;;2.90;;
61038;SDS011;46919;45.816;3.104;2023-10-09T13:48:42;9.88;;;3.45;;
61038;SDS011;46919;45.816;3.104;2023-10-09T13:51:11;6.32;;;3.17;;
61038;SDS011;46919;45.816;3.104;2023-10-09T13:53:47;6.90;;;2.80;;
61038;SDS011;46919;45.816;3.104;2023-10-09T13:58:40;10.85;;;3.00;;
61038;SDS011;46919;45.816;3.104;2023-10-09T14:01:08;7.82;;;3.05;;
61038;SDS011;46919;45.816;3.104;2023-10-09T14:03:34;7.40;;;3.53;;
61038;SDS011;46919;45.816;3.104;2023-10-09T14:05:59;8.40;;;3.03;;
61038;SDS011;46919;45.816;3.104;2023-10-09T14:08:35;7.30;;;2.95;;
61038;SDS011;46919;45.816;3.104;2023-10-09T14:11:07;9.57;;;3.03;;
61038;SDS011;46919;45.816;3.104;2023-10-09T14:13:38;4.78;;;3.10;;
61038;SDS011;46919;45.816;3.104;2023-10-09T14:16:04;8.10;;;3.40;;
61038;SDS011;46919;45.816;3.104;2023-10-09T14:18:31;7.30;;;3.08;;
61038;SDS011;46919;45.816;3.104;2023-10-09T14:21:00;8.35;;;3.10;;
61038;SDS011;46919;45.816;3.104;2023-10-09T14:23:29;11.93;;;3.28;;
61038;SDS011;46919;45.816;3.104;2023-10-09T14:25:59;8.88;;;3.20;;
61038;SDS011;46919;45.816;3.104;2023-10-09T14:28:26;6.78;;;3.08;;
61038;SDS011;46919;45.816;3.104;2023-10-09T14:30:54;8.25;;;3.22;;
61038;SDS011;46919;45.816;3.104;2023-10-09T14:33:24;7.97;;;3.55;;
61038;SDS011;46919;45.816;3.104;2023-10-09T14:35:52;7.45;;;2.88;;
61038;SDS011;46919;45.816;3.104;2023-10-09T14:38:19;8.30;;;3.08;;
61038;SDS011;46919;45.816;3.104;2023-10-09T14:40:51;8.57;;;3.15;;
61038;SDS011;46919;45.816;3.104;2023-10-09T14:43:22;9.30;;;3.05;;
61038;SDS011;46919;45.816;3.104;2023-10-09T14:45:53;9.48;;;3.15;;
61038;SDS011;46919;45.816;3.104;2023-10-09T14:48:19;7.95;;;3.35;;
61038;SDS011;46919;45.816;3.104;2023-10-09T14:50:51;9.32;;;3.00;;
61038;SDS011;46919;45.816;3.104;2023-10-09T14:53:29;9.55;;;2.70;;
61038;SDS011;46919;45.816;3.104;2023-10-09T14:55:55;6.43;;;2.97;;
61038;SDS011;46919;45.816;3.104;2023-10-09T14:58:21;8.63;;;3.22;;
61038;SDS011;46919;45.816;3.104;2023-10-09T15:00:53;8.65;;;3.20;;
61038;SDS011;46919;45.816;3.104;2023-10-09T15:03:19;8.32;;;3.38;;
61038;SDS011;46919;45.816;3.104;2023-10-09T15:05:45;10.18;;;3.60;;
61038;SDS011;46919;45.816;3.104;2023-10-09T15:08:11;7.05;;;2.92;;
61038;SDS011;46919;45.816;3.104;2023-10-09T15:10:50;8.65;;;2.97;;
61038;SDS011;46919;45.816;3.104;2023-10-09T15:13:21;13.15;;;3.35;;
61038;SDS011;46919;45.816;3.104;2023-10-09T15:15:53;11.60;;;3.42;;
61038;SDS011;46919;45.816;3.104;2023-10-09T15:18:20;10.57;;;3.88;;
61038;SDS011;46919;45.816;3.104;2023-10-09T15:20:46;6.20;;;2.50;;
61038;SDS011;46919;45.816;3.104;2023-10-09T15:23:13;9.48;;;3.35;;
61038;SDS011;46919;45.816;3.104;2023-10-09T15:25:38;8.13;;;3.38;;
61038;SDS011;46919;45.816;3.104;2023-10-09T15:28:04;12.02;;;3.60;;
61038;SDS011;46919;45.816;3.104;2023-10-09T15:30:34;7.68;;;2.80;;
61038;SDS011;46919;45.816;3.104;2023-10-09T15:33:03;6.55;;;3.17;;
61038;SDS011;46919;45.816;3.104;2023-10-09T15:35:32;8.57;;;2.97;;
61038;SDS011;46919;45.816;3.104;2023-10-09T15:38:01;7.90;;;3.00;;
61038;SDS011;46919;45.816;3.104;2023-10-09T15:40:31;9.52;;;3.40;;
61038;SDS011;46919;45.816;3.104;2023-10-09T15:43:02;10.10;;;3.15;;
61038;SDS011;46919;45.816;3.104;2023-10-09T15:45:29;7.95;;;2.97;;
61038;SDS011;46919;45.816;3.104;2023-10-09T15:47:56;12.20;;;3.28;;
61038;SDS011;46919;45.816;3.104;2023-10-09T15:50:24;8.02;;;2.85;;
61038;SDS011;46919;45.816;3.104;2023-10-09T15:52:53;7.53;;;2.97;;